Time;durP1;ratioP1;P1;durP2;ratioP2;P2;SDS_P1;SDS_P2;PMS_P1;PMS_P2;Temp;Humidity;BMP_temperature;BMP_pressure;BME280_temperature;BME280_humidity;BME280_pressure;Samples;Min_cycle;Max_cycle;Signal;HPM_P1;HPM_P2
2022/09/15 00:01:20;;;;;;;2.85;1.45;;;12.80;99.90;;;;;;5054561;28;20048;-69
2022/09/15 00:03:46;;;;;;;2.65;1.30;;;12.70;99.90;;;;;;5052561;28;20049;-70
2022/09/15 00:06:12;;;;;;;3.22;1.38;;;12.70;99.90;;;;;;5034017;28;20041;-70
2022/09/15 00:08:38;;;;;;;2.58;1.60;;;12.70;99.90;;;;;;5055385;28;20033;-70
2022/09/15 00:11:11;;;;;;;3.70;1.45;;;12.70;99.90;;;;;;5022744;28;20045;-70
2022/09/15 00:13:38;;;;;;;4.93;1.80;;;12.60;99.90;;;;;;5021549;28;20049;-70
2022/09/15 00:16:04;;;;;;;3.33;2.22;;;12.70;99.90;;;;;;5061510;28;20464;-69
2022/09/15 00:18:31;;;;;;;2.58;1.73;;;12.70;99.90;;;;;;5039597;28;20048;-70
2022/09/15 00:20:57;;;;;;;3.72;1.88;;;12.70;99.90;;;;;;5030578;28;20475;-70
2022/09/15 00:23:23;;;;;;;3.65;1.90;;;12.70;99.90;;;;;;5045358;28;20061;-70
2022/09/15 00:25:52;;;;;;;4.53;2.08;;;12.70;99.90;;;;;;5051059;28;20674;-69
2022/09/15 00:28:21;;;;;;;3.35;2.25;;;12.70;99.90;;;;;;5064789;28;20056;-70
2022/09/15 00:30:49;;;;;;;3.75;1.90;;;12.80;99.90;;;;;;5063710;28;20128;-69
2022/09/15 00:33:16;;;;;;;3.20;1.90;;;12.90;99.90;;;;;;5065601;28;20071;-69
2022/09/15 00:35:44;;;;;;;3.83;2.38;;;12.90;99.90;;;;;;5027474;28;20509;-69
2022/09/15 00:38:12;;;;;;;3.63;2.50;;;12.90;99.90;;;;;;5034476;28;20098;-69
2022/09/15 00:40:53;;;;;;;3.90;2.28;;;12.90;99.90;;;;;;5065058;28;20053;-70
2022/09/15 00:43:40;;;;;;;4.20;2.95;;;12.90;99.90;;;;;;5046328;28;20366;-70
2022/09/15 00:46:06;;;;;;;5.03;3.10;;;12.90;99.90;;;;;;5033661;28;20082;-70
2022/09/15 00:48:34;;;;;;;3.25;2.95;;;12.90;99.90;;;;;;5061809;28;20136;-70
2022/09/15 00:51:01;;;;;;;4.97;3.95;;;13.00;99.90;;;;;;5048360;28;20045;-70
2022/09/15 00:53:29;;;;;;;6.53;3.90;;;13.00;99.90;;;;;;5048530;28;20084;-70
2022/09/15 00:55:56;;;;;;;7.70;4.00;;;13.10;99.90;;;;;;5064376;28;20037;-70
2022/09/15 00:58:36;;;;;;;6.30;4.07;;;13.20;99.90;;;;;;5063208;28;20049;-70
2022/09/15 01:01:04;;;;;;;5.07;4.05;;;13.30;99.90;;;;;;5053072;28;20048;-70
2022/09/15 01:03:32;;;;;;;6.47;4.05;;;13.30;99.90;;;;;;5031408;28;20041;-70
2022/09/15 01:06:50;;;;;;;6.70;3.83;;;13.30;99.90;;;;;;5025527;28;20044;-70
2022/09/15 01:09:35;;;;;;;7.50;3.28;;;13.40;99.90;;;;;;5003170;28;20067;-70
2022/09/15 01:12:02;;;;;;;6.20;3.33;;;13.40;99.90;;;;;;5030109;28;20094;-70
2022/09/15 01:14:27;;;;;;;10.25;3.88;;;13.50;99.90;;;;;;5033224;28;20045;-70
2022/09/15 01:17:08;;;;;;;9.65;3.40;;;13.60;99.90;;;;;;5045389;28;20532;-70
2022/09/15 01:19:51;;;;;;;7.65;2.85;;;13.60;99.90;;;;;;5056276;28;20068;-70
2022/09/15 01:22:39;;;;;;;9.18;2.38;;;13.70;99.90;;;;;;5028614;28;20052;-70
2022/09/15 01:25:13;;;;;;;4.03;1.80;;;13.70;99.90;;;;;;5025187;28;20049;-70
2022/09/15 01:28:12;;;;;;;5.72;1.92;;;13.80;99.90;;;;;;5041298;28;20340;-70
2022/09/15 01:30:54;;;;;;;8.65;2.00;;;13.80;99.90;;;;;;5010985;28;20362;-70
2022/09/15 01:33:29;;;;;;;4.72;1.38;;;13.80;99.90;;;;;;5024655;28;20347;-70
2022/09/15 01:36:02;;;;;;;7.32;1.60;;;13.80;99.90;;;;;;5057214;28;20052;-70
2022/09/15 01:38:55;;;;;;;5.05;1.30;;;13.90;99.90;;;;;;5040144;28;20047;-70
2022/09/15 01:41:36;;;;;;;4.88;1.17;;;13.90;99.90;;;;;;5061299;28;20382;-70
2022/09/15 01:44:18;;;;;;;6.32;1.20;;;13.90;99.90;;;;;;5057990;28;20042;-70
2022/09/15 01:46:48;;;;;;;7.13;1.30;;;13.90;99.90;;;;;;5061906;28;20039;-70
2022/09/15 01:49:22;;;;;;;4.75;0.82;;;13.90;99.90;;;;;;5056998;28;20050;-70
2022/09/15 01:51:50;;;;;;;3.13;1.30;;;14.00;99.90;;;;;;5020193;28;20048;-70
2022/09/15 01:54:24;;;;;;;4.70;1.33;;;14.00;99.90;;;;;;5057422;28;20041;-70
2022/09/15 01:56:50;;;;;;;5.03;1.05;;;14.00;99.90;;;;;;5023830;28;20041;-70
2022/09/15 01:59:16;;;;;;;5.40;1.00;;;14.00;99.90;;;;;;5056205;28;20091;-70
2022/09/15 02:01:53;;;;;;;3.47;0.90;;;14.00;99.90;;;;;;5055469;28;20049;-70
2022/09/15 02:04:31;;;;;;;4.82;1.20;;;14.00;99.90;;;;;;5044171;28;20132;-70
2022/09/15 02:07:15;;;;;;;8.25;1.00;;;14.00;99.90;;;;;;5028094;28;20415;-70
2022/09/15 02:09:54;;;;;;;8.63;1.25;;;13.90;99.90;;;;;;5025479;28;20033;-70
2022/09/15 02:12:36;;;;;;;4.32;1.05;;;13.90;99.90;;;;;;5049938;28;20034;-70
2022/09/15 02:15:07;;;;;;;8.05;1.42;;;13.80;99.90;;;;;;5025554;28;20458;-70
2022/09/15 02:17:42;;;;;;;6.78;0.90;;;13.80;99.90;;;;;;5019531;28;20056;-70
2022/09/15 02:20:14;;;;;;;4.75;1.20;;;13.90;99.90;;;;;;5060805;28;20041;-70
2022/09/15 02:22:45;;;;;;;6.03;1.20;;;13.80;99.90;;;;;;5059100;28;20045;-70
2022/09/15 02:25:16;;;;;;;5.38;1.00;;;13.80;99.90;;;;;;5043124;28;20127;-70
2022/09/15 02:27:46;;;;;;;5.95;1.10;;;13.80;99.90;;;;;;5025675;28;20033;-70
2022/09/15 02:30:15;;;;;;;8.43;1.00;;;13.80;99.90;;;;;;5023355;28;20119;-70
2022/09/15 02:32:57;;;;;;;5.53;1.10;;;13.70;99.90;;;;;;5054985;28;20121;-70
2022/09/15 02:35:27;;;;;;;7.50;1.17;;;13.70;99.90;;;;;;5054920;28;20043;-70
2022/09/15 02:37:54;;;;;;;6.63;1.17;;;13.70;99.90;;;;;;5019337;28;20043;-70
2022/09/15 02:40:21;;;;;;;5.45;1.50;;;13.70;99.90;;;;;;5040199;28;20046;-70
2022/09/15 02:42:54;;;;;;;9.05;1.05;;;13.70;99.90;;;;;;5025164;28;20091;-70
2022/09/15 02:45:20;;;;;;;5.68;0.90;;;13.70;99.90;;;;;;5030618;28;20075;-70
2022/09/15 02:47:46;;;;;;;5.28;0.80;;;13.70;99.90;;;;;;5056363;28;20129;-70
2022/09/15 02:50:12;;;;;;;5.95;0.95;;;13.70;99.90;;;;;;5054281;28;20131;-70
2022/09/15 02:52:37;;;;;;;4.55;0.68;;;13.70;99.90;;;;;;5065246;28;20056;-70
2022/09/15 02:55:04;;;;;;;5.30;0.93;;;13.80;99.90;;;;;;5052797;28;20091;-70
2022/09/15 02:57:30;;;;;;;5.72;1.00;;;13.80;99.90;;;;;;5023123;28;20140;-70
2022/09/15 03:00:14;;;;;;;5.68;0.68;;;13.80;99.90;;;;;;5055445;28;20464;-70
2022/09/15 03:02:41;;;;;;;;;;;13.80;99.90;;;;;;5042956;28;20044;-70
2022/09/15 03:05:08;;;;;;;3.47;0.50;;;13.80;99.90;;;;;;5055783;28;19956;-70
2022/09/15 03:07:35;;;;;;;4.60;0.80;;;13.80;99.90;;;;;;5022150;28;20498;-70
2022/09/15 03:10:01;;;;;;;5.60;0.90;;;13.90;99.90;;;;;;5054578;28;20072;-70
2022/09/15 03:12:27;;;;;;;7.38;0.98;;;13.80;99.90;;;;;;5024128;28;20080;-71
2022/09/15 03:14:52;;;;;;;6.75;0.90;;;13.80;99.90;;;;;;5006086;28;20047;-70
2022/09/15 03:17:18;;;;;;;5.60;0.93;;;13.80;99.90;;;;;;5043350;28;20482;-70
2022/09/15 03:19:44;;;;;;;6.88;0.90;;;13.90;99.90;;;;;;5048939;28;20354;-70
2022/09/15 03:22:10;;;;;;;7.50;1.13;;;13.90;99.90;;;;;;5056209;28;20095;-70
2022/09/15 03:24:36;;;;;;;6.90;0.93;;;13.90;99.90;;;;;;5050627;28;20033;-70
2022/09/15 03:27:02;;;;;;;8.73;1.08;;;13.90;99.90;;;;;;5023445;28;20037;-70
2022/09/15 03:29:28;;;;;;;4.47;0.80;;;13.90;99.90;;;;;;5053890;28;20045;-70
2022/09/15 03:31:54;;;;;;;6.28;1.00;;;13.90;99.90;;;;;;5053889;28;20523;-70
2022/09/15 03:34:20;;;;;;;6.53;0.93;;;13.90;99.90;;;;;;5058416;28;20033;-70
2022/09/15 03:36:45;;;;;;;3.80;0.98;;;13.90;99.90;;;;;;5052870;28;20045;-70
2022/09/15 03:39:12;;;;;;;8.40;1.00;;;13.90;99.90;;;;;;5054916;28;20405;-70
2022/09/15 03:41:37;;;;;;;4.10;0.60;;;13.90;99.90;;;;;;5054449;28;20046;-70
2022/09/15 03:44:03;;;;;;;6.18;0.80;;;13.90;99.90;;;;;;5058498;28;20059;-70
2022/09/15 03:46:29;;;;;;;10.73;1.77;;;13.90;99.90;;;;;;5056105;28;20057;-70
2022/09/15 03:48:55;;;;;;;3.85;0.70;;;13.80;99.90;;;;;;5017107;28;20079;-70
2022/09/15 03:51:21;;;;;;;3.58;0.90;;;13.80;99.90;;;;;;5019732;28;20128;-70
2022/09/15 03:53:47;;;;;;;3.88;0.88;;;13.80;99.90;;;;;;5022478;28;20132;-70
2022/09/15 03:56:23;;;;;;;7.88;0.80;;;13.80;99.90;;;;;;5051901;28;20066;-70
2022/09/15 03:58:50;;;;;;;5.20;0.52;;;13.80;99.90;;;;;;5059615;28;20045;-70
2022/09/15 04:01:17;;;;;;;5.50;0.70;;;13.80;99.90;;;;;;5043441;28;20074;-70
2022/09/15 04:03:44;;;;;;;5.05;0.80;;;13.80;99.90;;;;;;5040441;28;20040;-70
2022/09/15 04:06:10;;;;;;;6.32;1.73;;;13.80;99.90;;;;;;5020380;28;20389;-70
2022/09/15 04:08:35;;;;;;;4.00;1.25;;;13.80;99.90;;;;;;5059008;28;20045;-70
2022/09/15 04:11:06;;;;;;;9.23;1.30;;;13.80;99.90;;;;;;5022104;28;20038;-70
2022/09/15 04:13:32;;;;;;;7.60;1.10;;;13.80;99.90;;;;;;5053774;28;20041;-70
2022/09/15 04:16:04;;;;;;;5.20;1.00;;;13.80;99.90;;;;;;5023793;28;20050;-70
2022/09/15 04:18:32;;;;;;;5.90;1.00;;;13.80;99.90;;;;;;5055523;28;20051;-70
2022/09/15 04:21:02;;;;;;;5.22;1.30;;;13.70;99.90;;;;;;5021005;28;20045;-70
2022/09/15 04:23:28;;;;;;;6.15;0.90;;;13.70;99.90;;;;;;5004229;28;20045;-70
2022/09/15 04:26:00;;;;;;;6.28;1.10;;;13.70;99.90;;;;;;5054210;28;20045;-70
2022/09/15 04:28:27;;;;;;;6.40;0.82;;;13.70;99.90;;;;;;5053866;28;20049;-70
2022/09/15 04:31:01;;;;;;;5.55;1.00;;;13.70;99.90;;;;;;5036036;28;20503;-70
2022/09/15 04:33:26;;;;;;;3.40;0.85;;;13.70;99.90;;;;;;5041465;28;20056;-70
2022/09/15 04:36:07;;;;;;;6.90;1.33;;;13.70;99.90;;;;;;5058324;28;20041;-70
2022/09/15 04:38:34;;;;;;;4.88;0.90;;;13.70;99.90;;;;;;5051726;28;20447;-70
2022/09/15 04:41:01;;;;;;;5.75;0.90;;;13.60;99.90;;;;;;5019946;28;20041;-70
2022/09/15 04:43:27;;;;;;;5.57;1.00;;;13.60;99.90;;;;;;5041205;28;20498;-70
2022/09/15 04:45:53;;;;;;;6.00;1.15;;;13.60;99.90;;;;;;5020402;28;20067;-70
2022/09/15 04:48:20;;;;;;;5.82;0.95;;;13.60;99.90;;;;;;5018505;28;20049;-70
2022/09/15 04:50:45;;;;;;;6.88;1.50;;;13.50;99.90;;;;;;5023152;28;20039;-70
2022/09/15 04:53:11;;;;;;;5.68;0.80;;;13.50;99.90;;;;;;5053944;28;20059;-70
2022/09/15 04:55:37;;;;;;;7.07;1.27;;;13.50;99.90;;;;;;5055879;28;20108;-70
2022/09/15 04:58:04;;;;;;;4.70;0.85;;;13.50;99.90;;;;;;5054535;28;20068;-70
2022/09/15 05:00:33;;;;;;;4.82;0.63;;;13.50;99.90;;;;;;5052438;28;20059;-70
2022/09/15 05:02:59;;;;;;;5.57;0.93;;;13.50;99.90;;;;;;5056466;28;20473;-70
2022/09/15 05:05:25;;;;;;;6.60;1.10;;;13.50;99.90;;;;;;5022495;28;20095;-70
2022/09/15 05:07:51;;;;;;;6.25;0.65;;;13.50;99.90;;;;;;5053455;28;20665;-70
2022/09/15 05:10:18;;;;;;;4.82;0.70;;;13.40;99.90;;;;;;5021520;28;20045;-70
2022/09/15 05:12:44;;;;;;;7.72;0.98;;;13.40;99.90;;;;;;5021911;28;20450;-70
2022/09/15 05:15:11;;;;;;;4.25;0.82;;;13.40;99.90;;;;;;5059666;28;20068;-70
2022/09/15 05:17:37;;;;;;;7.72;1.40;;;13.40;99.90;;;;;;5057268;28;20098;-70
2022/09/15 05:20:03;;;;;;;8.48;0.85;;;13.40;99.90;;;;;;5056142;28;20037;-70
2022/09/15 05:22:30;;;;;;;3.83;1.08;;;13.40;99.90;;;;;;5055576;28;20065;-70
2022/09/15 05:24:55;;;;;;;5.10;0.63;;;13.50;99.90;;;;;;5053408;28;20049;-70
2022/09/15 05:27:21;;;;;;;6.43;0.75;;;13.50;99.90;;;;;;5022851;28;20077;-70
2022/09/15 05:29:47;;;;;;;5.72;1.02;;;13.50;99.90;;;;;;5059678;28;20057;-70
2022/09/15 05:32:13;;;;;;;6.63;0.95;;;13.50;99.90;;;;;;5053139;28;20038;-71
2022/09/15 05:34:39;;;;;;;8.80;1.23;;;13.50;99.90;;;;;;5048904;28;20106;-70
2022/09/15 05:37:04;;;;;;;7.18;0.80;;;13.50;99.90;;;;;;5054431;28;20688;-71
2022/09/15 05:39:30;;;;;;;6.28;0.95;;;13.50;99.90;;;;;;5040591;28;20448;-71
2022/09/15 05:41:56;;;;;;;5.63;0.80;;;13.60;99.90;;;;;;5055022;28;20045;-71
2022/09/15 05:44:21;;;;;;;4.75;1.15;;;13.60;99.90;;;;;;5051231;28;20033;-71
2022/09/15 05:46:48;;;;;;;10.13;0.90;;;13.60;99.90;;;;;;5056702;28;20049;-71
2022/09/15 05:49:13;;;;;;;10.63;1.73;;;13.60;99.90;;;;;;5021270;28;20048;-71
2022/09/15 05:51:39;;;;;;;5.13;0.75;;;13.60;99.90;;;;;;5058410;28;20037;-71
2022/09/15 05:54:05;;;;;;;7.10;1.02;;;13.60;99.90;;;;;;5016901;28;20044;-71
2022/09/15 05:56:31;;;;;;;9.45;0.88;;;13.70;99.90;;;;;;5055563;28;20082;-71
2022/09/15 05:58:58;;;;;;;5.40;0.85;;;13.70;99.90;;;;;;5052271;28;20164;-71
2022/09/15 06:01:26;;;;;;;6.18;1.20;;;13.70;99.90;;;;;;5026693;28;20071;-71
2022/09/15 06:03:54;;;;;;;8.00;0.70;;;13.80;99.90;;;;;;5054229;28;20045;-71
2022/09/15 06:06:20;;;;;;;6.97;0.90;;;13.80;99.90;;;;;;5056395;28;20040;-69
2022/09/15 06:08:49;;;;;;;4.80;0.88;;;13.80;99.90;;;;;;5024401;28;20049;-69
2022/09/15 06:11:19;;;;;;;3.47;0.70;;;13.80;99.90;;;;;;5051933;28;20045;-69
2022/09/15 06:13:45;;;;;;;6.20;0.85;;;13.90;99.90;;;;;;5026243;28;20036;-69
2022/09/15 06:16:22;;;;;;;4.97;0.70;;;14.00;99.90;;;;;;5015970;28;20044;-69
2022/09/15 06:18:50;;;;;;;7.22;0.90;;;14.10;99.90;;;;;;5056128;28;20387;-69
2022/09/15 06:21:27;;;;;;;5.57;1.08;;;14.20;99.90;;;;;;5055421;28;20128;-69
2022/09/15 06:24:02;;;;;;;6.30;0.75;;;14.30;99.90;;;;;;5056947;28;20038;-69
2022/09/15 06:26:28;;;;;;;4.85;0.70;;;14.50;99.90;;;;;;5053198;28;20041;-69
2022/09/15 06:28:59;;;;;;;7.35;0.80;;;14.60;99.90;;;;;;5025832;28;20357;-69
2022/09/15 06:31:26;;;;;;;3.53;0.77;;;14.60;99.90;;;;;;5024598;28;20032;-69
2022/09/15 06:33:54;;;;;;;6.38;0.90;;;14.70;99.90;;;;;;5041599;28;20145;-69
2022/09/15 06:36:22;;;;;;;5.72;0.63;;;14.70;99.90;;;;;;5053650;28;20044;-69
2022/09/15 06:38:48;;;;;;;7.38;0.80;;;14.80;99.90;;;;;;5056581;28;20530;-69
2022/09/15 06:41:15;;;;;;;5.20;0.77;;;14.80;99.90;;;;;;5054858;28;20041;-69
2022/09/15 06:43:41;;;;;;;10.57;0.90;;;14.90;99.90;;;;;;5053422;28;20049;-69
2022/09/15 06:46:12;;;;;;;4.90;0.70;;;14.80;99.90;;;;;;5020675;28;20115;-69
2022/09/15 06:48:39;;;;;;;5.97;0.93;;;14.90;99.90;;;;;;5028901;28;20048;-69
2022/09/15 06:51:07;;;;;;;4.68;0.70;;;15.00;99.90;;;;;;5040749;28;20385;-69
2022/09/15 06:53:34;;;;;;;6.20;0.80;;;15.10;99.90;;;;;;5052944;28;20025;-69
2022/09/15 06:56:05;;;;;;;6.00;0.93;;;15.20;99.90;;;;;;5059344;28;20047;-69
2022/09/15 06:58:33;;;;;;;4.05;1.27;;;15.30;99.90;;;;;;5025106;28;20531;-69
2022/09/15 07:01:04;;;;;;;6.18;0.98;;;15.40;99.90;;;;;;5019974;28;20104;-69
2022/09/15 07:03:30;;;;;;;6.90;0.63;;;15.40;99.90;;;;;;5044961;28;20049;-69
2022/09/15 07:05:56;;;;;;;3.97;0.65;;;15.50;99.90;;;;;;5052526;28;20512;-69
2022/09/15 07:08:26;;;;;;;6.05;0.80;;;15.50;99.90;;;;;;5019227;28;20065;-70
2022/09/15 07:10:59;;;;;;;7.18;0.98;;;15.60;99.90;;;;;;5165664;22;20318;-69
2022/09/15 07:13:26;;;;;;;5.55;0.80;;;15.70;99.90;;;;;;4991158;28;20763;-70
2022/09/15 07:16:00;;;;;;;5.93;0.65;;;15.80;99.90;;;;;;5001310;28;20085;-70
2022/09/15 07:18:33;;;;;;;4.85;0.80;;;15.90;99.90;;;;;;4983635;28;20145;-70
2022/09/15 07:21:09;;;;;;;5.15;0.88;;;16.00;99.90;;;;;;4990067;28;20054;-70
2022/09/15 07:23:41;;;;;;;9.80;1.13;;;16.00;99.90;;;;;;4993723;28;20077;-69
2022/09/15 07:26:22;;;;;;;4.57;0.90;;;16.00;99.90;;;;;;4992872;28;20543;-70
2022/09/15 07:28:58;;;;;;;6.45;0.80;;;15.90;99.90;;;;;;4996047;28;20046;-70
2022/09/15 07:31:32;;;;;;;8.40;1.02;;;16.00;99.90;;;;;;5000206;28;20125;-70
2022/09/15 07:34:03;;;;;;;5.90;0.60;;;16.00;99.90;;;;;;5011552;28;20077;-70
2022/09/15 07:36:32;;;;;;;7.13;0.77;;;16.20;99.90;;;;;;4982991;28;20092;-70
2022/09/15 07:39:02;;;;;;;7.72;0.93;;;16.30;99.90;;;;;;4999133;28;20081;-69
2022/09/15 07:41:32;;;;;;;6.13;0.90;;;16.50;99.90;;;;;;5004538;28;20393;-70
2022/09/15 07:44:03;;;;;;;5.45;0.63;;;17.00;99.90;;;;;;5002077;28;20054;-70
2022/09/15 07:46:34;;;;;;;4.22;0.98;;;17.40;99.90;;;;;;5001666;28;20057;-70
2022/09/15 07:49:07;;;;;;;4.82;0.70;;;17.70;99.90;;;;;;4995081;28;20080;-70
2022/09/15 07:51:39;;;;;;;7.07;0.88;;;18.10;99.90;;;;;;4997685;28;20058;-70
2022/09/15 07:54:13;;;;;;;5.38;0.60;;;18.50;99.90;;;;;;4999344;28;20054;-70
2022/09/15 07:56:41;;;;;;;;;;;18.50;99.90;;;;;;5000010;28;20096;-70
2022/09/15 07:59:07;;;;;;;5.00;0.68;;;18.30;99.90;;;;;;4993941;28;19988;-70
2022/09/15 08:01:33;;;;;;;5.35;0.77;;;18.10;99.90;;;;;;5000829;28;20061;-70
2022/09/15 08:03:59;;;;;;;4.60;0.77;;;18.00;99.90;;;;;;4997619;28;20050;-70
2022/09/15 08:06:26;;;;;;;4.50;0.65;;;17.90;99.90;;;;;;4998599;28;20512;-70
2022/09/15 08:08:51;;;;;;;6.47;1.17;;;18.10;99.90;;;;;;5001354;28;20049;-70
2022/09/15 08:11:19;;;;;;;4.85;0.65;;;18.70;99.90;;;;;;4998795;28;20077;-70
2022/09/15 08:13:49;;;;;;;6.70;0.70;;;20.00;99.90;;;;;;4979605;28;20054;-70
2022/09/15 08:16:22;;;;;;;5.35;0.70;;;20.80;99.90;;;;;;5001781;28;20038;-70
2022/09/15 08:18:48;;;;;;;5.05;0.88;;;20.80;98.80;;;;;;5004227;28;20100;-70
2022/09/15 08:21:16;;;;;;;4.60;1.10;;;20.30;97.80;;;;;;5003420;28;20113;-70
2022/09/15 08:23:42;;;;;;;5.65;0.63;;;19.70;97.90;;;;;;4996467;28;20049;-70
2022/09/15 08:26:10;;;;;;;3.67;0.50;;;19.40;99.20;;;;;;4999951;28;20037;-70
2022/09/15 08:28:36;;;;;;;8.93;0.77;;;19.20;98.80;;;;;;5001536;28;20541;-70
2022/09/15 08:31:07;;;;;;;4.50;0.85;;;19.00;98.60;;;;;;4999562;28;20046;-70
2022/09/15 08:33:33;;;;;;;5.97;0.90;;;18.90;97.90;;;;;;5001000;28;20034;-70
2022/09/15 08:36:04;;;;;;;4.22;0.55;;;18.70;98.40;;;;;;4999561;28;20111;-70
2022/09/15 08:38:31;;;;;;;7.22;0.75;;;18.70;98.80;;;;;;5011160;28;20106;-70
2022/09/15 08:41:02;;;;;;;5.65;1.00;;;18.60;98.90;;;;;;4996170;28;20038;-70
2022/09/15 08:43:35;;;;;;;3.75;0.77;;;18.50;98.60;;;;;;5011441;28;20034;-70
2022/09/15 08:46:08;;;;;;;2.72;0.60;;;18.50;98.40;;;;;;5002738;28;20691;-70
2022/09/15 08:48:42;;;;;;;6.63;0.75;;;18.40;98.60;;;;;;5008136;28;20042;-70
2022/09/15 08:51:14;;;;;;;;;;;18.40;98.40;;;;;;5003322;28;20401;-70
2022/09/15 08:53:46;;;;;;;3.17;0.63;;;18.60;97.60;;;;;;4995053;28;19921;-70
2022/09/15 08:56:16;;;;;;;6.32;0.80;;;19.20;98.60;;;;;;5002249;28;20179;-70
2022/09/15 08:58:44;;;;;;;3.53;0.60;;;19.60;97.30;;;;;;5002230;28;20137;-70
2022/09/15 09:01:10;;;;;;;4.13;0.63;;;19.80;94.80;;;;;;5003519;28;20061;-70
2022/09/15 09:03:48;;;;;;;4.18;0.52;;;20.00;94.20;;;;;;5004852;28;20035;-70
2022/09/15 09:06:13;;;;;;;5.20;0.73;;;20.20;95.60;;;;;;5001121;28;20058;-70
2022/09/15 09:09:10;;;;;;;4.93;0.65;;;20.60;94.70;;;;;;5006712;28;20045;-70
2022/09/15 09:11:49;;;;;;;5.82;0.70;;;20.80;92.40;;;;;;5001935;28;20054;-70
2022/09/15 09:14:23;;;;;;;4.18;0.73;;;21.00;93.80;;;;;;4990107;28;20126;-70
2022/09/15 09:17:15;;;;;;;3.60;0.63;;;20.90;90.10;;;;;;5002223;28;20037;-71
2022/09/15 09:20:23;;;;;;;6.40;0.57;;;21.30;90.70;;;;;;5006965;28;20136;-71
2022/09/15 09:22:52;;;;;;;3.75;0.50;;;21.40;88.20;;;;;;5001863;28;20049;-71
2022/09/15 09:25:19;;;;;;;3.88;0.60;;;21.90;90.70;;;;;;4991373;28;20049;-71
2022/09/15 09:27:46;;;;;;;3.28;0.60;;;22.90;88.90;;;;;;4999887;28;20042;-71
2022/09/15 09:30:21;;;;;;;3.95;0.60;;;23.50;84.90;;;;;;5009285;28;20053;-71
2022/09/15 09:32:59;;;;;;;3.13;0.40;;;23.40;80.70;;;;;;4984668;28;20045;-71
2022/09/15 09:35:45;;;;;;;3.03;0.55;;;23.10;80.60;;;;;;4992299;28;20046;-71
2022/09/15 09:38:19;;;;;;;6.57;0.65;;;22.60;75.00;;;;;;5003038;28;20072;-71
2022/09/15 09:40:45;;;;;;;4.05;0.55;;;22.20;80.60;;;;;;5005813;28;20389;-71
2022/09/15 09:43:11;;;;;;;3.17;0.60;;;22.00;82.90;;;;;;5007309;28;20444;-71
2022/09/15 09:45:37;;;;;;;3.10;0.35;;;21.70;78.20;;;;;;5007231;28;20037;-71
2022/09/15 09:48:20;;;;;;;2.90;0.50;;;21.40;78.80;;;;;;4998230;28;20041;-71
2022/09/15 09:50:46;;;;;;;4.17;0.50;;;21.20;75.90;;;;;;5001859;28;20193;-71
2022/09/15 09:53:25;;;;;;;7.25;0.70;;;21.00;77.00;;;;;;4997091;28;20759;-71
2022/09/15 09:55:54;;;;;;;4.05;0.73;;;20.70;78.60;;;;;;5008369;28;20048;-71
2022/09/15 09:58:23;;;;;;;5.38;0.70;;;20.40;80.70;;;;;;5005043;28;20053;-71
2022/09/15 10:00:50;;;;;;;3.05;0.50;;;20.10;81.00;;;;;;5009083;28;20109;-71
2022/09/15 10:03:22;;;;;;;3.15;0.30;;;19.90;80.30;;;;;;5002139;28;20039;-70
2022/09/15 10:06:19;;;;;;;2.83;0.45;;;19.80;79.20;;;;;;5005004;28;20049;-71
2022/09/15 10:09:07;;;;;;;3.47;0.60;;;19.70;80.40;;;;;;4997510;28;20049;-71
2022/09/15 10:11:51;;;;;;;3.53;0.50;;;19.70;79.70;;;;;;5006830;28;20048;-71
2022/09/15 10:14:40;;;;;;;2.13;0.30;;;19.60;79.90;;;;;;5002644;28;20042;-70
2022/09/15 10:17:08;;;;;;;3.47;0.43;;;19.50;79.80;;;;;;5000406;28;20305;-70
2022/09/15 10:19:43;;;;;;;4.45;0.40;;;19.30;78.30;;;;;;5003529;28;20141;-71
2022/09/15 10:22:19;;;;;;;3.42;0.43;;;19.20;78.50;;;;;;5013410;28;20104;-71
2022/09/15 10:24:45;;;;;;;2.17;0.20;;;19.50;80.10;;;;;;5002553;28;20162;-71
2022/09/15 10:27:24;;;;;;;3.22;0.40;;;20.20;82.10;;;;;;5003326;28;20050;-71
2022/09/15 10:29:50;;;;;;;1.98;0.40;;;20.60;82.10;;;;;;5001009;28;20528;-71
2022/09/15 10:32:30;;;;;;;4.57;0.50;;;21.30;79.00;;;;;;5005414;28;20081;-71
2022/09/15 10:35:05;;;;;;;4.03;0.40;;;21.70;72.50;;;;;;5003795;28;20081;-71
2022/09/15 10:37:34;;;;;;;3.40;0.40;;;22.40;74.30;;;;;;5004854;28;20049;-72
2022/09/15 10:40:17;;;;;;;2.47;0.40;;;22.80;71.50;;;;;;4985534;28;20046;-71
2022/09/15 10:42:55;;;;;;;2.60;0.50;;;22.60;69.30;;;;;;5002520;28;20514;-71
2022/09/15 10:45:34;;;;;;;2.63;0.57;;;22.30;69.70;;;;;;5011951;28;20545;-71
2022/09/15 10:48:32;;;;;;;3.92;0.60;;;21.90;71.00;;;;;;5004009;28;20125;-71
2022/09/15 10:51:20;;;;;;;3.33;0.52;;;21.40;69.20;;;;;;5009305;28;20048;-71
2022/09/15 10:53:50;;;;;;;5.03;0.68;;;20.80;72.50;;;;;;5010576;28;20042;-72
2022/09/15 10:56:40;;;;;;;6.22;0.60;;;19.90;80.30;;;;;;5014681;28;20038;-71
2022/09/15 10:59:42;;;;;;;6.88;0.73;;;19.10;88.70;;;;;;5008180;28;20124;-71
2022/09/15 11:02:45;;;;;;;2.92;0.50;;;18.60;92.40;;;;;;5005387;28;20045;-71
2022/09/15 11:05:51;;;;;;;5.75;1.02;;;18.00;96.00;;;;;;5005331;28;20127;-70
2022/09/15 11:08:40;;;;;;;3.83;0.80;;;17.70;99.90;;;;;;5010902;28;20794;-70
2022/09/15 11:11:28;;;;;;;7.30;0.57;;;17.40;99.90;;;;;;4993743;28;20117;-70
2022/09/15 11:14:33;;;;;;;4.28;0.73;;;17.30;99.90;;;;;;5002522;28;20050;-70
2022/09/15 11:17:32;;;;;;;3.88;0.85;;;18.20;99.90;;;;;;4990007;28;20038;-69
2022/09/15 11:20:27;;;;;;;6.72;0.90;;;18.60;99.90;;;;;;5005482;28;20046;-69
2022/09/15 11:23:18;;;;;;;5.82;0.90;;;18.30;99.90;;;;;;4998380;28;20058;-69
2022/09/15 11:25:49;;;;;;;6.88;0.80;;;18.10;99.90;;;;;;4998418;28;20038;-69
2022/09/15 11:28:38;;;;;;;5.65;0.80;;;17.80;99.90;;;;;;5002211;28;20035;-69
2022/09/15 11:31:37;;;;;;;4.97;0.70;;;17.70;99.90;;;;;;4998969;28;20130;-69
2022/09/15 11:34:10;;;;;;;3.05;0.60;;;17.60;99.90;;;;;;5007006;28;20077;-69
2022/09/15 11:36:43;;;;;;;6.20;0.70;;;17.50;99.90;;;;;;5002466;28;20120;-69
2022/09/15 11:39:19;;;;;;;3.50;0.60;;;17.40;99.90;;;;;;5002397;28;20042;-69
2022/09/15 11:41:55;;;;;;;5.90;1.10;;;17.50;99.90;;;;;;4998991;28;20038;-69
2022/09/15 11:44:27;;;;;;;3.25;0.50;;;18.40;99.90;;;;;;5005403;28;20212;-69
2022/09/15 11:47:35;;;;;;;5.38;0.93;;;19.70;99.90;;;;;;5002261;28;20050;-69
2022/09/15 11:50:10;;;;;;;3.92;0.80;;;20.80;99.90;;;;;;4998426;28;20038;-69
2022/09/15 11:52:56;;;;;;;4.63;0.75;;;21.50;96.30;;;;;;4996528;28;20038;-69
2022/09/15 11:55:26;;;;;;;2.97;0.50;;;21.70;96.70;;;;;;5002329;28;20104;-70
2022/09/15 11:58:15;;;;;;;5.80;0.88;;;21.00;93.60;;;;;;5004712;28;20454;-70
2022/09/15 12:00:50;;;;;;;2.40;0.50;;;20.90;92.60;;;;;;5001476;28;20117;-70
2022/09/15 12:03:29;;;;;;;2.20;0.47;;;21.70;91.90;;;;;;4988576;28;21300;-70
2022/09/15 12:06:04;;;;;;;2.75;0.45;;;22.20;88.20;;;;;;5002054;28;20054;-70
2022/09/15 12:08:53;;;;;;;1.75;0.20;;;22.60;80.70;;;;;;4998780;28;20042;-69
2022/09/15 12:11:23;;;;;;;3.00;0.60;;;23.10;80.10;;;;;;4989099;28;20590;-69
2022/09/15 12:13:49;;;;;;;2.92;0.40;;;23.20;78.50;;;;;;5002644;28;20050;-69
2022/09/15 12:16:16;;;;;;;2.47;0.40;;;22.10;78.00;;;;;;4998618;28;20395;-69
2022/09/15 12:18:49;;;;;;;3.30;0.45;;;21.10;78.00;;;;;;4996048;28;20085;-69
2022/09/15 12:21:29;;;;;;;2.97;0.60;;;20.30;81.30;;;;;;4998408;28;20042;-69
2022/09/15 12:24:09;;;;;;;3.55;0.40;;;19.80;86.00;;;;;;5001615;28;20162;-69
2022/09/15 12:26:36;;;;;;;4.10;0.38;;;19.50;86.00;;;;;;5007586;28;20045;-68
2022/09/15 12:29:23;;;;;;;3.05;0.30;;;20.00;89.20;;;;;;5002336;28;20488;-69
2022/09/15 12:32:24;;;;;;;0.65;0.10;;;21.10;87.10;;;;;;4999317;28;20057;-68
2022/09/15 12:35:24;;;;;;;2.03;0.30;;;21.50;74.10;;;;;;5004558;28;20037;-68
2022/09/15 12:37:56;;;;;;;1.50;0.45;;;21.00;77.90;;;;;;4998114;28;20456;-69
2022/09/15 12:40:25;;;;;;;1.67;0.30;;;20.50;77.80;;;;;;5001576;28;20508;-69
2022/09/15 12:42:51;;;;;;;2.13;0.35;;;20.70;79.10;;;;;;5002233;28;20076;-69
2022/09/15 12:45:24;;;;;;;2.28;0.22;;;21.70;77.20;;;;;;5003946;28;20033;-68
2022/09/15 12:47:53;;;;;;;1.48;0.28;;;21.80;75.30;;;;;;4999806;28;20448;-68
2022/09/15 12:50:21;;;;;;;2.35;0.30;;;22.30;76.00;;;;;;5005605;28;20728;-69
2022/09/15 12:52:48;;;;;;;3.78;0.40;;;23.00;73.00;;;;;;5000901;28;20121;-69
2022/09/15 12:55:23;;;;;;;2.40;0.30;;;23.00;72.20;;;;;;5006119;28;20034;-69
2022/09/15 12:57:59;;;;;;;4.18;0.52;;;22.20;69.80;;;;;;5002417;28;20370;-69
2022/09/15 13:00:43;;;;;;;1.08;0.20;;;21.40;72.10;;;;;;4998753;28;20213;-68
2022/09/15 13:03:52;;;;;;;3.97;0.47;;;20.70;72.70;;;;;;4996246;28;20125;-69
2022/09/15 13:06:26;;;;;;;2.50;0.40;;;20.00;73.10;;;;;;5004361;28;20506;-69
2022/09/15 13:09:00;;;;;;;3.53;0.30;;;19.60;75.90;;;;;;4996275;28;20301;-68
2022/09/15 13:11:38;;;;;;;2.17;0.40;;;19.40;77.10;;;;;;5003248;28;20120;-68
2022/09/15 13:14:06;;;;;;;3.75;0.40;;;19.20;78.50;;;;;;4999656;28;20117;-69
2022/09/15 13:16:47;;;;;;;3.70;0.40;;;19.30;78.00;;;;;;5006537;28;20050;-69